Time;durP1;ratioP1;P1;durP2;ratioP2;P2;SDS_P1;SDS_P2;PMS_P1;PMS_P2;Temp;Humidity;BMP_temperature;BMP_pressure;BME280_temperature;BME280_humidity;BME280_pressure;Samples;Min_cycle;Max_cycle;Signal;HPM_P1;HPM_P2
2022/01/31 00:01:15;;;;;;;29.17;4.45;;;4.10;99.90;;;;;;4988818;28;20037;-72
2022/01/31 00:03:41;;;;;;;30.05;4.78;;;4.10;99.90;;;;;;4968829;28;260817;-72
2022/01/31 00:06:07;;;;;;;26.10;4.55;;;4.10;99.90;;;;;;4956596;28;20057;-72
2022/01/31 00:08:33;;;;;;;22.90;4.07;;;4.10;99.90;;;;;;4987158;28;20050;-72
2022/01/31 00:11:00;;;;;;;21.10;4.32;;;4.00;99.90;;;;;;4936149;28;161833;-72
2022/01/31 00:13:34;;;;;;;25.20;4.40;;;4.00;99.90;;;;;;5004057;28;20081;-72
2022/01/31 00:16:01;;;;;;;27.05;5.00;;;4.00;99.90;;;;;;4962603;28;159552;-72
2022/01/31 00:18:28;;;;;;;23.45;5.07;;;4.00;99.90;;;;;;4985424;28;20050;-72
2022/01/31 00:20:54;;;;;;;23.45;4.65;;;4.00;99.90;;;;;;4941601;28;209050;-72
2022/01/31 00:23:20;;;;;;;29.88;5.72;;;4.10;99.90;;;;;;4984188;28;20050;-72
2022/01/31 00:25:46;;;;;;;28.95;5.40;;;4.00;99.90;;;;;;4961491;28;67383;-72
2022/01/31 00:28:13;;;;;;;25.23;5.68;;;4.00;99.90;;;;;;4993543;28;20529;-72
2022/01/31 00:30:40;;;;;;;24.30;4.50;;;4.10;99.90;;;;;;4953564;28;55047;-72
2022/01/31 00:33:07;;;;;;;21.65;5.15;;;4.00;99.90;;;;;;4998703;28;20056;-72
2022/01/31 00:35:33;;;;;;;22.83;4.88;;;4.10;99.90;;;;;;4973901;28;169495;-72
2022/01/31 00:38:00;;;;;;;33.53;6.13;;;4.10;99.90;;;;;;4980626;28;20049;-72
2022/01/31 00:40:26;;;;;;;21.67;5.68;;;4.10;99.90;;;;;;4947674;28;74525;-72
2022/01/31 00:42:52;;;;;;;26.17;6.28;;;4.10;99.90;;;;;;4990298;28;20046;-72
2022/01/31 00:47:49;;;;;;;24.48;5.75;;;4.10;99.90;;;;;;5003694;28;20050;-71
2022/01/31 00:50:18;;;;;;;21.90;6.10;;;4.10;99.90;;;;;;4938269;28;172717;-70
2022/01/31 00:52:44;;;;;;;24.95;6.65;;;4.10;99.90;;;;;;4996266;28;20053;-70
2022/01/31 01:06:14;;;;;;;23.35;7.30;;;4.00;99.90;;;;;;4993098;28;20057;-71
2022/01/31 01:08:40;;;;;;;22.92;7.15;;;4.00;99.90;;;;;;4979004;28;250652;-70
2022/01/31 01:11:06;;;;;;;24.10;7.50;;;4.00;99.90;;;;;;4940925;28;149605;-69
2022/01/31 01:13:33;;;;;;;27.13;7.45;;;4.00;99.90;;;;;;5004244;28;20046;-70
2022/01/31 01:15:59;;;;;;;26.75;6.78;;;4.00;99.90;;;;;;4933388;28;113724;-70
2022/01/31 01:18:25;;;;;;;23.80;7.82;;;4.00;99.90;;;;;;5011608;28;20065;-70
2022/01/31 01:20:51;;;;;;;24.55;7.40;;;4.00;99.90;;;;;;4937615;28;254621;-69
2022/01/31 01:23:17;;;;;;;30.60;9.13;;;4.00;99.90;;;;;;4995192;28;20060;-70
2022/01/31 01:25:43;;;;;;;29.90;9.63;;;4.00;99.90;;;;;;4956432;28;249495;-70
2022/01/31 01:28:09;;;;;;;31.38;10.48;;;4.00;99.90;;;;;;4996419;28;20085;-69
2022/01/31 01:30:35;;;;;;;29.33;9.55;;;4.00;99.90;;;;;;4944392;28;261175;-70
2022/01/31 01:33:17;;;;;;;33.60;11.25;;;3.90;99.90;;;;;;4998085;28;20050;-70
2022/01/31 01:35:43;;;;;;;31.98;11.23;;;3.90;99.90;;;;;;4953370;28;86815;-70
2022/01/31 01:38:12;;;;;;;29.92;10.43;;;3.80;99.90;;;;;;4978736;28;20058;-70
2022/01/31 01:40:40;;;;;;;27.90;11.13;;;3.80;99.90;;;;;;4937206;28;272531;-70
2022/01/31 01:43:07;;;;;;;32.65;12.68;;;3.80;99.90;;;;;;4994211;28;20415;-70
2022/01/31 01:45:34;;;;;;;34.63;14.05;;;3.70;99.90;;;;;;4951235;28;74128;-70
2022/01/31 01:48:00;;;;;;;40.30;15.65;;;3.70;99.90;;;;;;4999635;28;20060;-70
2022/01/31 01:50:26;;;;;;;34.25;13.95;;;3.70;99.90;;;;;;4957159;28;256876;-70
2022/01/31 01:52:53;;;;;;;29.40;13.98;;;3.60;99.90;;;;;;4996915;28;20057;-70
2022/01/31 01:55:19;;;;;;;43.67;16.48;;;3.50;99.90;;;;;;4944600;28;119746;-69
2022/01/31 01:57:46;;;;;;;34.30;15.60;;;3.50;99.90;;;;;;4996715;28;20396;-69
2022/01/31 02:00:19;;;;;;;31.80;14.68;;;3.50;99.90;;;;;;4935060;28;153266;-69
2022/01/31 02:02:46;;;;;;;32.35;15.30;;;3.50;99.90;;;;;;4991247;28;20041;-69
2022/01/31 02:05:13;;;;;;;29.90;15.23;;;3.40;99.90;;;;;;4932862;28;262926;-69
2022/01/31 02:07:39;;;;;;;30.70;15.93;;;3.40;99.90;;;;;;4980242;28;20054;-70
2022/01/31 02:10:06;;;;;;;31.20;13.25;;;3.30;99.90;;;;;;4952268;28;160765;-70
2022/01/31 02:12:45;;;;;;;28.15;13.45;;;3.30;99.90;;;;;;4990293;28;20502;-68
2022/01/31 02:15:13;;;;;;;27.88;14.75;;;3.30;99.90;;;;;;4958185;28;248146;-69
2022/01/31 02:17:39;;;;;;;27.83;13.55;;;3.20;99.90;;;;;;4992321;28;20070;-70
2022/01/31 02:20:08;;;;;;;26.63;13.60;;;3.20;99.90;;;;;;4959194;28;273581;-70
2022/01/31 02:22:37;;;;;;;27.08;14.57;;;3.20;99.90;;;;;;4981733;28;20045;-69
2022/01/31 02:25:04;;;;;;;28.80;15.80;;;3.20;99.90;;;;;;4941781;28;155317;-69
2022/01/31 02:27:35;;;;;;;25.58;15.05;;;3.20;99.90;;;;;;5002301;28;21669;-70
2022/01/31 02:30:04;;;;;;;33.15;16.05;;;3.20;99.90;;;;;;4956012;28;271516;-69
2022/01/31 02:32:30;;;;;;;28.33;16.70;;;3.20;99.90;;;;;;4997467;28;20058;-69
2022/01/31 02:34:57;;;;;;;28.35;15.23;;;3.20;99.90;;;;;;4963238;28;267858;-70
2022/01/31 02:37:23;;;;;;;29.83;16.55;;;3.30;99.90;;;;;;5000109;28;20057;-70
2022/01/31 02:39:49;;;;;;;30.33;15.18;;;3.30;99.90;;;;;;4949026;28;265802;-69
2022/01/31 02:42:15;;;;;;;25.08;13.52;;;3.30;99.90;;;;;;4988745;28;20062;-70
2022/01/31 02:44:43;;;;;;;25.90;13.50;;;3.30;99.90;;;;;;4950337;28;269750;-69
2022/01/31 02:47:13;;;;;;;24.08;12.25;;;3.30;99.90;;;;;;5000027;28;20039;-70
2022/01/31 02:49:49;;;;;;;23.85;13.02;;;3.40;99.90;;;;;;4972308;28;118685;-69
2022/01/31 02:52:18;;;;;;;21.17;11.80;;;3.40;99.90;;;;;;5004223;28;20427;-69
2022/01/31 02:54:44;;;;;;;23.33;11.00;;;3.40;99.90;;;;;;4953579;28;273492;-69
2022/01/31 02:57:11;;;;;;;19.92;12.13;;;3.40;99.90;;;;;;5001809;28;20054;-70
2022/01/31 02:59:37;;;;;;;18.60;9.63;;;3.50;99.90;;;;;;4943201;28;245613;-69
2022/01/31 03:02:05;;;;;;;23.17;11.95;;;3.50;99.90;;;;;;4984189;28;20050;-69
2022/01/31 03:04:32;;;;;;;21.30;10.60;;;3.50;99.90;;;;;;4940280;28;231307;-69
2022/01/31 03:06:58;;;;;;;18.10;9.73;;;3.60;99.90;;;;;;4979429;28;20076;-69
2022/01/31 03:09:24;;;;;;;19.42;10.35;;;3.60;99.90;;;;;;4954570;28;267881;-69
2022/01/31 03:11:51;;;;;;;23.25;10.82;;;3.60;99.90;;;;;;4990415;28;20056;-70
2022/01/31 03:14:18;;;;;;;19.10;10.43;;;3.60;99.90;;;;;;4960482;28;188824;-70
2022/01/31 03:16:48;;;;;;;20.02;9.98;;;3.60;99.90;;;;;;4996056;28;20058;-70
2022/01/31 03:19:16;;;;;;;20.60;10.15;;;3.70;99.90;;;;;;4956817;28;260189;-70
2022/01/31 03:21:43;;;;;;;21.27;10.57;;;3.80;99.90;;;;;;4998320;28;20593;-70
2022/01/31 03:24:10;;;;;;;19.77;10.70;;;3.80;99.90;;;;;;4971606;28;207400;-70
2022/01/31 03:26:37;;;;;;;23.08;10.57;;;3.90;99.90;;;;;;4996747;28;20050;-69
2022/01/31 03:29:04;;;;;;;22.70;9.00;;;4.00;99.90;;;;;;4986402;28;211660;-69
2022/01/31 03:31:30;;;;;;;24.35;10.48;;;4.10;99.90;;;;;;4948964;28;20076;-69
2022/01/31 03:33:56;;;;;;;22.75;10.05;;;4.20;99.90;;;;;;4970497;28;252771;-69
2022/01/31 03:36:23;;;;;;;21.15;9.13;;;4.20;99.90;;;;;;4963736;28;20100;-70
2022/01/31 03:38:50;;;;;;;26.63;8.70;;;4.30;99.90;;;;;;4983322;28;267084;-70
2022/01/31 03:41:19;;;;;;;28.05;8.98;;;4.40;99.90;;;;;;4923344;28;20038;-71
2022/01/31 03:43:46;;;;;;;33.97;8.52;;;4.50;99.90;;;;;;4977011;28;233639;-69
2022/01/31 03:46:12;;;;;;;36.67;8.15;;;4.60;99.90;;;;;;4958576;28;20042;-69
2022/01/31 03:48:40;;;;;;;37.08;7.28;;;4.70;99.90;;;;;;4987344;28;259293;-69
2022/01/31 03:51:07;;;;;;;41.13;6.43;;;4.90;99.90;;;;;;4955694;28;20034;-70
2022/01/31 03:53:33;;;;;;;37.10;6.18;;;5.00;99.90;;;;;;5003281;28;20046;-70
2022/01/31 03:55:59;;;;;;;33.80;5.53;;;5.20;99.90;;;;;;4949962;28;40702;-70
2022/01/31 03:58:25;;;;;;;36.72;5.55;;;5.30;99.90;;;;;;4996723;28;20057;-69
2022/01/31 04:00:52;;;;;;;38.20;5.50;;;5.40;99.90;;;;;;4961336;28;35921;-69
2022/01/31 04:03:18;;;;;;;34.65;5.13;;;5.40;99.90;;;;;;5011865;28;20069;-70
2022/01/31 04:05:44;;;;;;;39.80;5.28;;;5.50;99.90;;;;;;4916788;28;162074;-70
2022/01/31 04:08:12;;;;;;;26.77;4.45;;;5.60;99.90;;;;;;5012302;28;20415;-69
2022/01/31 04:10:38;;;;;;;32.22;4.53;;;5.60;99.90;;;;;;4955822;28;138229;-70
2022/01/31 04:13:07;;;;;;;26.98;4.07;;;5.70;99.90;;;;;;5003213;28;20044;-70
2022/01/31 04:15:35;;;;;;;25.50;3.60;;;5.70;99.90;;;;;;4974301;28;20050;-69
2022/01/31 04:18:02;;;;;;;26.23;3.30;;;5.70;99.90;;;;;;4996824;28;20042;-70
2022/01/31 04:20:28;;;;;;;18.92;2.95;;;5.70;99.90;;;;;;4948302;28;48139;-70
2022/01/31 04:23:00;;;;;;;17.73;2.65;;;5.60;99.90;;;;;;4972502;28;20519;-70
2022/01/31 04:25:41;;;;;;;17.90;2.47;;;5.50;99.90;;;;;;4968548;28;101928;-71
2022/01/31 04:28:16;;;;;;;20.80;2.13;;;5.50;99.90;;;;;;4986534;28;20053;-69
2022/01/31 04:31:01;;;;;;;15.05;2.25;;;5.30;99.90;;;;;;4943302;28;171095;-69
2022/01/31 04:33:28;;;;;;;18.67;2.13;;;5.20;99.90;;;;;;5001334;28;20054;-69
2022/01/31 04:35:55;;;;;;;19.33;2.90;;;5.20;99.90;;;;;;4941468;28;62785;-69
2022/01/31 04:38:22;;;;;;;23.98;3.08;;;5.20;99.90;;;;;;4999811;28;20098;-70
2022/01/31 04:40:48;;;;;;;23.83;3.20;;;5.20;99.90;;;;;;4949446;28;227199;-70
2022/01/31 04:43:14;;;;;;;21.80;3.70;;;5.20;99.90;;;;;;5007192;28;20072;-69
2022/01/31 04:45:47;;;;;;;23.23;3.25;;;5.20;99.90;;;;;;4925179;28;177477;-70
2022/01/31 04:48:17;;;;;;;27.77;3.40;;;5.30;99.90;;;;;;4992709;28;20049;-69
2022/01/31 04:50:44;;;;;;;29.73;3.50;;;5.30;99.90;;;;;;4955300;28;275099;-69
2022/01/31 04:53:11;;;;;;;26.83;3.83;;;5.20;99.90;;;;;;5006817;28;20054;-69
2022/01/31 04:55:37;;;;;;;23.50;4.43;;;5.20;99.90;;;;;;4944965;28;256386;-70
2022/01/31 04:58:05;;;;;;;24.98;3.55;;;5.30;99.90;;;;;;4998091;28;21222;-70
2022/01/31 05:00:31;;;;;;;25.88;3.85;;;5.30;99.90;;;;;;4934226;28;241133;-69
2022/01/31 05:02:57;;;;;;;25.35;3.45;;;5.30;99.90;;;;;;4982055;28;20080;-69
2022/01/31 05:05:23;;;;;;;29.48;3.80;;;5.30;99.90;;;;;;4938477;28;256423;-70
2022/01/31 05:07:52;;;;;;;25.13;3.72;;;5.30;99.90;;;;;;4998999;28;20050;-71
2022/01/31 05:10:19;;;;;;;25.95;3.83;;;5.30;99.90;;;;;;4930092;28;224364;-71
2022/01/31 05:12:45;;;;;;;28.70;3.90;;;5.20;99.90;;;;;;5001584;28;20042;-70
2022/01/31 05:15:11;;;;;;;30.17;3.80;;;5.30;99.90;;;;;;4940893;28;111017;-69
2022/01/31 05:17:37;;;;;;;21.60;2.70;;;5.30;99.90;;;;;;4988950;28;20053;-70
2022/01/31 05:20:05;;;;;;;18.77;2.85;;;5.30;99.90;;;;;;4955889;28;90901;-69
2022/01/31 05:22:31;;;;;;;23.27;3.22;;;5.20;99.90;;;;;;4996901;28;20046;-70
2022/01/31 05:24:57;;;;;;;18.95;2.78;;;5.10;99.90;;;;;;4949247;28;274836;-69
2022/01/31 05:27:23;;;;;;;19.50;2.35;;;5.00;99.90;;;;;;4974685;28;20050;-70
2022/01/31 05:29:49;;;;;;;21.60;2.67;;;4.90;99.90;;;;;;4957717;28;111012;-70
2022/01/31 05:32:16;;;;;;;15.25;1.92;;;4.90;99.90;;;;;;4992334;28;20045;-70
2022/01/31 05:34:42;;;;;;;14.77;1.80;;;4.80;99.90;;;;;;4947848;28;272019;-69
2022/01/31 05:37:08;;;;;;;13.30;1.50;;;4.70;99.90;;;;;;4990946;28;20053;-70
2022/01/31 05:39:34;;;;;;;12.63;1.77;;;4.60;99.90;;;;;;4949174;28;268499;-71
2022/01/31 05:42:00;;;;;;;12.52;1.60;;;4.60;99.90;;;;;;4987580;28;20049;-70
2022/01/31 05:44:26;;;;;;;12.75;1.30;;;4.60;99.90;;;;;;4949500;28;259689;-70
2022/01/31 05:46:53;;;;;;;12.07;1.63;;;4.50;99.90;;;;;;4987082;28;20415;-71
2022/01/31 05:49:19;;;;;;;10.85;1.48;;;4.50;99.90;;;;;;4963954;28;143682;-70
2022/01/31 05:51:51;;;;;;;16.70;1.98;;;4.50;99.90;;;;;;4995602;28;20534;-70
2022/01/31 05:54:17;;;;;;;15.65;1.48;;;4.50;99.90;;;;;;4944114;28;169897;-71
2022/01/31 05:56:43;;;;;;;14.80;1.60;;;4.50;99.90;;;;;;4984712;28;20050;-70
2022/01/31 05:59:09;;;;;;;13.55;1.55;;;4.50;99.90;;;;;;4960524;28;77766;-70
2022/01/31 06:01:38;;;;;;;16.05;1.75;;;4.50;99.90;;;;;;4985132;28;20057;-74
2022/01/31 06:04:06;;;;;;;14.45;1.90;;;4.50;99.90;;;;;;4975928;28;83312;-70
2022/01/31 06:06:33;;;;;;;22.17;2.05;;;4.50;99.90;;;;;;4963582;28;20275;-70
2022/01/31 06:08:59;;;;;;;16.88;1.60;;;4.50;99.90;;;;;;4994929;28;249672;-71
2022/01/31 06:11:25;;;;;;;14.88;1.45;;;4.50;99.90;;;;;;4952591;28;20112;-69
2022/01/31 06:13:55;;;;;;;21.42;1.88;;;4.50;99.90;;;;;;4981527;28;252124;-70
2022/01/31 06:16:21;;;;;;;18.45;1.85;;;4.50;99.90;;;;;;4936823;28;20422;-70
2022/01/31 06:18:47;;;;;;;19.70;1.88;;;4.50;99.90;;;;;;4993117;28;260195;-70
2022/01/31 06:21:14;;;;;;;29.17;2.58;;;4.60;99.90;;;;;;4953930;28;20050;-70
2022/01/31 06:23:40;;;;;;;22.45;2.42;;;4.60;99.90;;;;;;4973198;28;256664;-69
2022/01/31 06:26:07;;;;;;;18.77;2.00;;;4.60;99.90;;;;;;4968801;28;20546;-70
2022/01/31 06:28:33;;;;;;;29.63;2.20;;;4.60;99.90;;;;;;5001870;28;20058;-70
2022/01/31 06:30:59;;;;;;;21.42;2.53;;;4.60;99.90;;;;;;4928310;28;236576;-70
2022/01/31 06:33:25;;;;;;;25.67;3.10;;;4.70;99.90;;;;;;5001506;28;20045;-70
2022/01/31 06:35:51;;;;;;;19.05;2.05;;;4.70;99.90;;;;;;4958384;28;20041;-71
2022/01/31 06:38:17;;;;;;;19.17;2.35;;;4.70;99.90;;;;;;5014392;28;20046;-70
2022/01/31 06:40:44;;;;;;;18.90;2.58;;;4.80;99.90;;;;;;4956256;28;82134;-70
2022/01/31 06:43:10;;;;;;;21.83;2.65;;;4.80;99.90;;;;;;4989446;28;20049;-71
2022/01/31 06:45:36;;;;;;;19.98;2.75;;;4.90;99.90;;;;;;4938845;28;263736;-71
2022/01/31 06:48:02;;;;;;;12.95;1.75;;;4.90;99.90;;;;;;4991504;28;20069;-70
2022/01/31 06:50:28;;;;;;;19.63;2.60;;;4.90;99.90;;;;;;4953931;28;85131;-70
2022/01/31 06:52:56;;;;;;;20.30;2.05;;;4.90;99.90;;;;;;4990780;28;20490;-67
2022/01/31 06:55:23;;;;;;;18.27;2.30;;;4.90;99.90;;;;;;4945849;28;255872;-70
2022/01/31 06:57:51;;;;;;;16.42;2.05;;;4.90;99.90;;;;;;4994915;28;20037;-70
2022/01/31 07:00:19;;;;;;;19.75;1.92;;;4.90;99.90;;;;;;4952133;28;162415;-70
2022/01/31 07:02:47;;;;;;;22.33;3.08;;;5.00;99.90;;;;;;4998915;28;20408;-70
2022/01/31 07:05:14;;;;;;;25.80;2.63;;;5.00;99.90;;;;;;4937198;28;252837;-71
2022/01/31 07:07:40;;;;;;;24.17;2.60;;;5.00;99.90;;;;;;4997540;28;20058;-70
2022/01/31 07:10:08;;;;;;;19.48;2.00;;;5.00;99.90;;;;;;4956685;28;120536;-70
2022/01/31 07:12:38;;;;;;;17.95;2.42;;;4.90;99.90;;;;;;4994606;28;20444;-70
2022/01/31 07:15:09;;;;;;;17.88;1.92;;;4.90;99.90;;;;;;4942304;28;241947;-71
2022/01/31 07:17:37;;;;;;;20.83;2.20;;;4.90;99.90;;;;;;4990082;28;20054;-70
2022/01/31 07:20:10;;;;;;;19.27;2.22;;;4.90;99.90;;;;;;4943388;28;267864;-71
2022/01/31 07:22:39;;;;;;;18.38;1.98;;;4.90;99.90;;;;;;4986459;28;20084;-71
2022/01/31 07:25:21;;;;;;;18.42;1.90;;;4.90;99.90;;;;;;4966504;28;176412;-71
2022/01/31 07:27:47;;;;;;;12.45;1.58;;;4.90;99.90;;;;;;4996229;28;20058;-69
2022/01/31 07:30:13;;;;;;;14.32;2.10;;;4.90;99.90;;;;;;4948888;28;240389;-69
2022/01/31 07:32:42;;;;;;;15.18;1.52;;;4.90;99.90;;;;;;4979709;28;20503;-69
2022/01/31 07:35:09;;;;;;;15.73;2.10;;;4.90;99.90;;;;;;4937775;28;184229;-70
2022/01/31 07:37:35;;;;;;;19.77;2.10;;;4.90;99.90;;;;;;5002865;28;20125;-70
2022/01/31 07:40:04;;;;;;;18.55;2.20;;;4.90;99.90;;;;;;4948049;28;123382;-70
2022/01/31 07:42:30;;;;;;;20.35;2.03;;;4.90;99.90;;;;;;4993069;28;20069;-70
2022/01/31 07:44:57;;;;;;;22.73;2.38;;;4.90;99.90;;;;;;4960128;28;265458;-70
2022/01/31 07:47:23;;;;;;;17.15;1.98;;;4.90;99.90;;;;;;4996937;28;20050;-70
2022/01/31 07:49:51;;;;;;;24.20;2.50;;;4.90;99.90;;;;;;4972184;28;82509;-70
2022/01/31 07:52:17;;;;;;;21.70;2.65;;;4.90;99.90;;;;;;4979134;28;20073;-70
2022/01/31 07:54:44;;;;;;;21.85;2.60;;;4.90;99.90;;;;;;4959333;28;101975;-69
2022/01/31 07:57:10;;;;;;;18.10;2.35;;;4.90;99.90;;;;;;4985777;28;20051;-70
2022/01/31 07:59:36;;;;;;;22.55;2.63;;;4.90;99.90;;;;;;4954612;28;66335;-70
2022/01/31 08:02:03;;;;;;;21.15;2.20;;;5.00;99.90;;;;;;4989382;28;20062;-70
2022/01/31 08:04:29;;;;;;;28.23;2.97;;;5.00;99.90;;;;;;4934198;28;270736;-69
2022/01/31 08:06:55;;;;;;;17.85;2.47;;;5.00;99.90;;;;;;5002034;28;20058;-70
2022/01/31 08:09:21;;;;;;;21.95;2.30;;;5.00;99.90;;;;;;4943338;28;230983;-69
2022/01/31 08:11:47;;;;;;;21.27;2.47;;;5.10;99.90;;;;;;4988710;28;20046;-70
2022/01/31 08:14:17;;;;;;;22.25;2.40;;;5.10;99.90;;;;;;4962032;28;264431;-69
2022/01/31 08:16:43;;;;;;;18.65;2.45;;;5.20;99.90;;;;;;5003497;28;20050;-70
2022/01/31 08:19:09;;;;;;;19.27;2.20;;;5.30;99.90;;;;;;4960381;28;267433;-70
2022/01/31 08:21:36;;;;;;;20.00;2.72;;;5.30;99.90;;;;;;4980984;28;20053;-70
2022/01/31 08:24:03;;;;;;;18.10;2.03;;;5.30;99.90;;;;;;4976879;28;162282;-70
2022/01/31 08:26:30;;;;;;;23.08;2.83;;;5.30;99.90;;;;;;4949002;28;20519;-71
2022/01/31 08:29:01;;;;;;;24.48;3.08;;;5.40;99.90;;;;;;4985983;28;258183;-70
2022/01/31 08:31:39;;;;;;;25.95;2.53;;;5.40;99.90;;;;;;4947763;28;20037;-71
2022/01/31 08:34:22;;;;;;;22.27;3.15;;;5.50;99.90;;;;;;4967052;28;116560;-70
2022/01/31 08:36:48;;;;;;;24.58;2.80;;;5.50;99.90;;;;;;4990108;28;20056;-71
2022/01/31 08:39:18;;;;;;;21.95;2.83;;;5.50;99.90;;;;;;4953015;28;276236;-70
2022/01/31 08:41:47;;;;;;;18.92;2.70;;;5.60;99.90;;;;;;4988118;28;20518;-71
2022/01/31 08:44:18;;;;;;;16.77;2.58;;;5.60;99.90;;;;;;4949335;28;251296;-71
2022/01/31 08:46:46;;;;;;;20.60;2.55;;;5.60;99.90;;;;;;4975054;28;20065;-71
2022/01/31 08:49:13;;;;;;;18.90;2.75;;;5.50;99.90;;;;;;4956388;28;253996;-70
2022/01/31 08:51:40;;;;;;;19.10;2.47;;;5.50;99.90;;;;;;4986836;28;20050;-70
2022/01/31 08:54:07;;;;;;;20.08;2.28;;;5.60;99.90;;;;;;4974770;28;251716;-70
2022/01/31 08:56:39;;;;;;;18.27;2.58;;;5.60;99.90;;;;;;4976278;28;20428;-71
2022/01/31 08:59:07;;;;;;;23.33;3.08;;;5.70;99.90;;;;;;4981209;28;132160;-70
2022/01/31 09:01:34;;;;;;;18.38;2.33;;;5.80;99.90;;;;;;4982491;28;20313;-70
2022/01/31 09:04:01;;;;;;;21.02;2.65;;;5.80;99.90;;;;;;4963790;28;266168;-71
2022/01/31 09:06:29;;;;;;;20.17;2.40;;;5.80;99.90;;;;;;4935492;28;20570;-70
2022/01/31 09:08:57;;;;;;;16.40;2.10;;;5.80;99.90;;;;;;4982179;28;250185;-71
2022/01/31 09:11:25;;;;;;;18.73;2.33;;;5.90;99.90;;;;;;4942375;28;20092;-71
2022/01/31 09:13:51;;;;;;;20.77;2.43;;;5.90;99.90;;;;;;4985073;28;258614;-71
2022/01/31 09:16:18;;;;;;;19.23;2.55;;;5.90;99.90;;;;;;4976862;28;20434;-70
2022/01/31 09:18:44;;;;;;;18.27;2.40;;;6.00;99.90;;;;;;4965856;28;271129;-70
2022/01/31 09:21:11;;;;;;;19.20;2.30;;;6.00;99.90;;;;;;4953872;28;20050;-71
2022/01/31 09:23:37;;;;;;;18.13;2.30;;;6.00;99.90;;;;;;4992107;28;20056;-71
2022/01/31 09:26:04;;;;;;;17.50;2.47;;;6.10;99.90;;;;;;4943812;28;20054;-71
2022/01/31 09:28:30;;;;;;;14.90;2.13;;;6.10;99.90;;;;;;4996973;28;20045;-70
2022/01/31 09:30:57;;;;;;;13.95;2.20;;;6.10;99.90;;;;;;4952724;28;20046;-70
2022/01/31 09:33:27;;;;;;;20.77;2.00;;;6.10;99.90;;;;;;5002697;28;20077;-70
2022/01/31 09:35:55;;;;;;;;;;;6.10;99.90;;;;;;4942129;28;20088;-71
2022/01/31 09:38:24;;;;;;;20.25;2.25;;;6.20;99.90;;;;;;4997547;28;19917;-70
2022/01/31 09:40:53;;;;;;;17.70;2.17;;;6.20;99.90;;;;;;4965822;28;66573;-70
2022/01/31 09:46:16;;;;;;;15.93;1.90;;;6.30;99.90;;;;;;4949913;28;32299;-71
2022/01/31 09:48:44;;;;;;;17.77;2.08;;;6.30;99.90;;;;;;4994744;28;273642;-71
2022/01/31 09:51:16;;;;;;;19.05;2.00;;;6.30;99.90;;;;;;4959063;28;20046;-70
2022/01/31 09:53:46;;;;;;;18.67;1.80;;;6.30;99.90;;;;;;4982428;28;258663;-71
2022/01/31 09:56:22;;;;;;;19.38;1.92;;;6.40;99.90;;;;;;4944522;28;20319;-71
2022/01/31 09:58:51;;;;;;;21.95;2.30;;;6.40;99.90;;;;;;4983114;28;276541;-71
2022/01/31 10:01:29;;;;;;;17.75;2.13;;;6.40;99.90;;;;;;4954257;28;20069;-71
2022/01/31 10:04:00;;;;;;;14.02;1.60;;;6.50;99.90;;;;;;4976202;28;259841;-70
2022/01/31 10:06:31;;;;;;;13.60;1.65;;;6.60;99.90;;;;;;4951476;28;20589;-71
2022/01/31 10:09:13;;;;;;;20.60;1.98;;;6.60;99.90;;;;;;4970918;28;267384;-72
2022/01/31 10:11:47;;;;;;;13.55;2.08;;;6.60;99.90;;;;;;4948450;28;20033;-71
2022/01/31 10:17:01;;;;;;;18.25;2.03;;;6.60;99.90;;;;;;5012186;28;20499;-71
2022/01/31 10:19:28;;;;;;;16.52;2.28;;;6.70;99.90;;;;;;4950970;28;241191;-70
2022/01/31 10:21:55;;;;;;;14.38;1.70;;;6.80;99.90;;;;;;5006533;28;20068;-71
2022/01/31 10:24:22;;;;;;;18.05;2.00;;;7.00;99.90;;;;;;4965673;28;128960;-70
2022/01/31 10:26:49;;;;;;;12.48;1.63;;;6.90;99.90;;;;;;5003394;28;20479;-70
2022/01/31 10:29:17;;;;;;;17.90;1.92;;;7.00;99.90;;;;;;4959097;28;70070;-71
2022/01/31 10:31:54;;;;;;;15.32;1.98;;;6.90;99.90;;;;;;4965486;28;20439;-70
2022/01/31 10:34:23;;;;;;;12.55;1.67;;;7.00;99.90;;;;;;4956679;28;212233;-70
2022/01/31 10:36:50;;;;;;;16.58;1.75;;;7.00;99.90;;;;;;4961258;28;20061;-71
2022/01/31 10:56:59;;;;;;;13.63;1.73;;;7.00;99.90;;;;;;4909326;29;20051;-70
2022/01/31 10:59:31;;;;;;;12.75;1.67;;;7.10;99.90;;;;;;4887567;28;85406;-69
2022/01/31 11:01:59;;;;;;;17.10;2.35;;;7.10;99.90;;;;;;4903626;29;20055;-70
2022/01/31 11:04:31;;;;;;;18.50;2.63;;;7.10;99.90;;;;;;4840686;29;111908;-70
2022/01/31 11:06:59;;;;;;;17.10;1.75;;;7.20;99.90;;;;;;4900907;29;20078;-71
2022/01/31 11:09:26;;;;;;;14.50;2.00;;;7.20;99.90;;;;;;4864110;29;216649;-71
2022/01/31 11:11:52;;;;;;;17.92;2.30;;;7.30;99.90;;;;;;4896073;29;20098;-71
2022/01/31 11:14:20;;;;;;;22.33;2.80;;;7.50;99.90;;;;;;4870144;29;186327;-70
2022/01/31 11:16:48;;;;;;;20.13;2.65;;;7.60;99.90;;;;;;4912163;29;20056;-70
2022/01/31 11:19:18;;;;;;;22.70;3.08;;;7.60;99.90;;;;;;4873414;29;38256;-69
2022/01/31 11:21:47;;;;;;;17.42;2.40;;;7.60;99.90;;;;;;4913267;29;20448;-70
2022/01/31 11:24:22;;;;;;;17.40;2.88;;;7.70;99.90;;;;;;4889676;28;20409;-70
2022/01/31 11:26:51;;;;;;;23.83;2.70;;;7.80;99.90;;;;;;4927856;28;20579;-70
2022/01/31 11:29:18;;;;;;;19.70;2.95;;;7.90;99.90;;;;;;4950711;28;258813;-70
2022/01/31 11:31:45;;;;;;;18.00;2.38;;;7.90;99.90;;;;;;5003743;28;20506;-71
2022/01/31 11:34:13;;;;;;;19.58;2.17;;;8.00;99.90;;;;;;4958160;28;264015;-70
2022/01/31 11:36:40;;;;;;;17.83;2.00;;;8.10;99.90;;;;;;4999938;28;20431;-70
2022/01/31 11:39:13;;;;;;;21.27;2.83;;;8.20;99.90;;;;;;4971469;28;250293;-70
2022/01/31 11:41:56;;;;;;;16.88;2.58;;;8.20;99.90;;;;;;4981050;28;20452;-70
2022/01/31 11:44:57;;;;;;;24.92;2.33;;;8.10;99.90;;;;;;4945891;28;253121;-72
2022/01/31 11:47:24;;;;;;;21.90;2.90;;;8.00;99.90;;;;;;4999305;28;20660;-70
2022/01/31 11:50:03;;;;;;;20.00;2.55;;;8.10;99.90;;;;;;4938970;28;176787;-70
2022/01/31 11:52:48;;;;;;;20.98;2.90;;;8.10;99.90;;;;;;4995206;28;20627;-70
2022/01/31 11:55:18;;;;;;;20.67;2.40;;;8.30;99.90;;;;;;4961221;28;90763;-70
2022/01/31 11:57:49;;;;;;;20.15;2.75;;;8.30;99.90;;;;;;5008237;28;20050;-70
2022/01/31 12:00:17;;;;;;;17.88;2.05;;;8.30;99.90;;;;;;4957567;28;96315;-70
2022/01/31 12:02:46;;;;;;;16.60;2.30;;;8.30;99.90;;;;;;4980422;28;20050;-71
2022/01/31 12:05:22;;;;;;;20.15;2.72;;;8.20;99.90;;;;;;4934591;28;127847;-70
2022/01/31 12:08:01;;;;;;;23.67;2.80;;;8.10;99.90;;;;;;4982732;28;20046;-70
2022/01/31 12:10:35;;;;;;;16.77;1.98;;;8.10;99.90;;;;;;4948224;28;178453;-69
2022/01/31 12:18:41;;;;;;;21.67;2.30;;;8.10;99.90;;;;;;5000544;28;20077;-70
2022/01/31 12:23:57;;;;;;;23.17;2.63;;;8.30;99.90;;;;;;4976260;28;267550;-70
2022/01/31 12:26:32;;;;;;;20.70;2.08;;;8.30;99.90;;;;;;4979020;28;20048;-71
2022/01/31 12:29:01;;;;;;;17.40;1.95;;;8.30;99.90;;;;;;4976051;28;273217;-71
2022/01/31 12:31:29;;;;;;;20.13;2.40;;;8.30;99.90;;;;;;4948089;28;20050;-71
2022/01/31 12:33:55;;;;;;;20.83;2.23;;;8.30;99.90;;;;;;4968599;28;267835;-70
2022/01/31 12:36:35;;;;;;;20.88;2.35;;;8.30;99.90;;;;;;4969755;28;20048;-70
2022/01/31 12:39:41;;;;;;;18.02;2.03;;;8.30;99.90;;;;;;4982628;28;266698;-71
2022/01/31 12:42:44;;;;;;;16.23;1.80;;;8.30;99.90;;;;;;4962395;28;20048;-71
2022/01/31 12:45:27;;;;;;;14.57;1.92;;;8.20;99.90;;;;;;4952553;28;250778;-71
2022/01/31 12:48:08;;;;;;;21.08;2.80;;;8.10;99.90;;;;;;4996269;28;20617;-71
2022/01/31 12:50:35;;;;;;;;;;;8.20;99.90;;;;;;4943954;28;276881;-70
2022/01/31 12:53:04;;;;;;;19.45;2.97;;;8.20;99.90;;;;;;5000210;28;19917;-71
2022/01/31 12:55:31;;;;;;;17.67;2.30;;;8.20;99.90;;;;;;4951628;28;190840;-71
2022/01/31 12:57:57;;;;;;;26.85;3.08;;;8.30;99.90;;;;;;5002158;28;20053;-70
2022/01/31 13:00:43;;;;;;;26.58;2.72;;;8.30;99.90;;;;;;4936139;28;267500;-71
2022/01/31 13:03:10;;;;;;;22.80;2.90;;;8.20;99.90;;;;;;4983012;28;20057;-70
2022/01/31 13:05:40;;;;;;;17.17;2.65;;;8.20;99.90;;;;;;4934194;28;262736;-69
2022/01/31 13:08:21;;;;;;;20.20;2.65;;;8.20;99.90;;;;;;4996114;28;20057;-70
2022/01/31 13:10:47;;;;;;;22.30;2.50;;;8.10;99.90;;;;;;4933843;28;216501;-70
2022/01/31 13:13:13;;;;;;;18.27;2.45;;;8.10;99.90;;;;;;4997072;28;20057;-69
2022/01/31 13:15:39;;;;;;;21.92;2.45;;;8.10;99.90;;;;;;4952003;28;20038;-71
2022/01/31 13:18:07;;;;;;;21.33;2.38;;;8.00;99.90;;;;;;4999785;28;20046;-69
2022/01/31 13:20:35;;;;;;;22.92;2.50;;;8.00;99.90;;;;;;4953526;28;263284;-69
2022/01/31 13:23:02;;;;;;;20.92;3.03;;;8.00;99.90;;;;;;4982805;28;20467;-70
2022/01/31 13:25:29;;;;;;;25.08;3.05;;;8.00;99.90;;;;;;4952085;28;125599;-71
2022/01/31 13:27:56;;;;;;;21.02;2.92;;;8.00;99.90;;;;;;4987400;28;20142;-71
2022/01/31 13:30:24;;;;;;;19.10;2.95;;;8.00;99.90;;;;;;4953669;28;49513;-70
2022/01/31 13:32:52;;;;;;;20.55;2.78;;;8.00;99.90;;;;;;4996964;28;20428;-70
2022/01/31 13:35:20;;;;;;;18.50;2.47;;;8.10;99.90;;;;;;4951077;28;167908;-70